Station Historical Data
Daily Summary for April 9, 2012 Units:  Both    English   Metric
« Previous Day
Next Day »
Daily Weekly Monthly Yearly Custom
  High: Low: Average:
Temperature: 72.2 °F /  22.3 °C 40.1 °F /  4.5 °C 57.8 °F /  14.3 °C
Dew Point: 46.9 °F /  8.3 °C 35.3 °F /  1.8 °C 41.3 °F /  5.2 °C
Humidity: 94% 30% 59%
Wind Speed: 10.0mph /  16.1km/h - 2.1mph /  3.4km/h
Wind Gust: 15.0mph /  24.1km/h - -
Wind- - West
Pressure: 30.16 in /  1021.2 hPa 30.03 in /  1016.8 hPa -
Precipitation: 0.00 in /  0 mm    
Historical Graphs
 
 
Tabular Data for April 9, 2012
Time Temperature Dew Point Pressure Wind Wind Speed Wind Gust Humidity Rainfall Rate (Hourly) Conditions
00:00 54.3 °F /  12.4 °C 44.4 °F /  6.9 °C 30.15in /  1020.9hPa NNW 3.0mph /  4.8km/h 4.0mph /  6.4km/h 69% 0.00in /  0mm
00:01 54.4 °F /  12.4 °C 44.5 °F /  6.9 °C 30.15in /  1020.9hPa NNW 3.0mph /  4.8km/h 4.0mph /  6.4km/h 69% 0.00in /  0mm
00:06 54.4 °F /  12.4 °C 44.5 °F /  6.9 °C 30.15in /  1020.9hPa NNW 2.0mph /  3.2km/h 3.0mph /  4.8km/h 69% 0.00in /  0mm
00:11 53.9 °F /  12.2 °C 44.3 °F /  6.8 °C 30.15in /  1020.9hPa Calm     70% 0.00in /  0mm
00:16 53.5 °F /  11.9 °C 44.3 °F /  6.8 °C 30.15in /  1020.9hPa Calm     71% 0.00in /  0mm
00:21 53.4 °F /  11.9 °C 44.2 °F /  6.8 °C 30.15in /  1020.9hPa Calm   1.0mph /  1.6km/h 71% 0.00in /  0mm
00:26 53.4 °F /  11.9 °C 44.2 °F /  6.8 °C 30.15in /  1020.9hPa Calm     71% 0.00in /  0mm
00:32 53.0 °F /  11.7 °C 43.9 °F /  6.6 °C 30.15in /  1020.9hPa Calm     71% 0.00in /  0mm
00:37 52.4 °F /  11.3 °C 43.7 °F /  6.5 °C 30.15in /  1020.9hPa Calm     72% 0.00in /  0mm
00:42 52.0 °F /  11.1 °C 44.0 °F /  6.7 °C 30.15in /  1020.9hPa Calm     74% 0.00in /  0mm
00:47 52.1 °F /  11.2 °C 44.1 °F /  6.7 °C 30.15in /  1020.9hPa Calm     74% 0.00in /  0mm
00:52 51.7 °F /  10.9 °C 43.7 °F /  6.5 °C 30.15in /  1020.9hPa Calm     74% 0.00in /  0mm
00:57 51.2 °F /  10.7 °C 43.2 °F /  6.2 °C 30.15in /  1020.9hPa Calm     74% 0.00in /  0mm
01:02 50.5 °F /  10.3 °C 43.2 °F /  6.2 °C 30.15in /  1020.9hPa Calm     76% 0.00in /  0mm
01:07 50.4 °F /  10.2 °C 44.1 °F /  6.7 °C 30.15in /  1020.9hPa Calm   1.0mph /  1.6km/h 79% 0.00in /  0mm
01:12 50.3 °F /  10.2 °C 44.4 °F /  6.9 °C 30.15in /  1020.9hPa Calm     80% 0.00in /  0mm
01:17 50.0 °F /  10 °C 44.1 °F /  6.7 °C 30.15in /  1020.9hPa Calm     80% 0.00in /  0mm
01:22 49.6 °F /  9.8 °C 44.3 °F /  6.8 °C 30.15in /  1020.9hPa Calm     82% 0.00in /  0mm
01:27 49.6 °F /  9.8 °C 44.7 °F /  7.1 °C 30.15in /  1020.9hPa Calm     83% 0.00in /  0mm
01:32 49.5 °F /  9.7 °C 44.6 °F /  7 °C 30.15in /  1020.9hPa NNW 1.0mph /  1.6km/h 1.0mph /  1.6km/h 83% 0.00in /  0mm
01:38 49.3 °F /  9.6 °C 44.4 °F /  6.9 °C 30.14in /  1020.5hPa Calm     83% 0.00in /  0mm
01:43 49.1 °F /  9.5 °C 43.8 °F /  6.6 °C 30.14in /  1020.5hPa Calm     82% 0.00in /  0mm
01:48 48.6 °F /  9.2 °C 43.4 °F /  6.3 °C 30.14in /  1020.5hPa Calm     82% 0.00in /  0mm
01:53 48.6 °F /  9.2 °C 43.7 °F /  6.5 °C 30.14in /  1020.5hPa Calm     83% 0.00in /  0mm
01:58 49.2 °F /  9.6 °C 44.0 °F /  6.7 °C 30.14in /  1020.5hPa NNW 1.0mph /  1.6km/h 1.0mph /  1.6km/h 82% 0.00in /  0mm
02:03 49.7 °F /  9.8 °C 43.8 °F /  6.6 °C 30.14in /  1020.5hPa Calm   1.0mph /  1.6km/h 80% 0.00in /  0mm
02:08 49.5 °F /  9.7 °C 43.3 °F /  6.3 °C 30.14in /  1020.5hPa Calm     79% 0.00in /  0mm
02:13 49.1 °F /  9.5 °C 43.2 °F /  6.2 °C 30.14in /  1020.5hPa Calm     80% 0.00in /  0mm
02:18 49.0 °F /  9.4 °C 42.8 °F /  6 °C 30.14in /  1020.5hPa Calm   1.0mph /  1.6km/h 79% 0.00in /  0mm
02:23 49.1 °F /  9.5 °C 42.9 °F /  6.1 °C 30.14in /  1020.5hPa Calm   1.0mph /  1.6km/h 79% 0.00in /  0mm
02:28 48.8 °F /  9.3 °C 42.9 °F /  6.1 °C 30.14in /  1020.5hPa NNW 1.0mph /  1.6km/h 1.0mph /  1.6km/h 80% 0.00in /  0mm
02:33 48.7 °F /  9.3 °C 43.1 °F /  6.2 °C 30.14in /  1020.5hPa NNW 1.0mph /  1.6km/h 1.0mph /  1.6km/h 81% 0.00in /  0mm
02:38 49.0 °F /  9.4 °C 42.8 °F /  6 °C 30.14in /  1020.5hPa NNW 1.0mph /  1.6km/h 1.0mph /  1.6km/h 79% 0.00in /  0mm
02:39 49.0 °F /  9.4 °C 42.8 °F /  6 °C 30.14in /  1020.5hPa NNW 1.0mph /  1.6km/h 1.0mph /  1.6km/h 79% 0.00in /  0mm
02:44 49.2 °F /  9.6 °C 42.6 °F /  5.9 °C 30.14in /  1020.5hPa NNW 1.0mph /  1.6km/h 1.0mph /  1.6km/h 78% 0.00in /  0mm
02:49 49.3 °F /  9.6 °C 42.4 °F /  5.8 °C 30.13in /  1020.2hPa NNW 2.0mph /  3.2km/h 2.0mph /  3.2km/h 77% 0.00in /  0mm
02:54 49.5 °F /  9.7 °C 42.3 °F /  5.7 °C 30.13in /  1020.2hPa NNW 1.0mph /  1.6km/h 2.0mph /  3.2km/h 76% 0.00in /  0mm
02:59 49.2 °F /  9.6 °C 42.3 °F /  5.7 °C 30.13in /  1020.2hPa Calm   1.0mph /  1.6km/h 77% 0.00in /  0mm
03:05 48.9 °F /  9.4 °C 42.0 °F /  5.6 °C 30.13in /  1020.2hPa Calm   1.0mph /  1.6km/h 77% 0.00in /  0mm
03:10 48.7 °F /  9.3 °C 41.8 °F /  5.4 °C 30.13in /  1020.2hPa Calm     77% 0.00in /  0mm
03:15 48.0 °F /  8.9 °C 41.5 °F /  5.3 °C 30.13in /  1020.2hPa Calm     78% 0.00in /  0mm
03:20 47.3 °F /  8.5 °C 41.1 °F /  5.1 °C 30.13in /  1020.2hPa Calm     79% 0.00in /  0mm
03:25 46.8 °F /  8.2 °C 41.3 °F /  5.2 °C 30.13in /  1020.2hPa Calm     81% 0.00in /  0mm
03:30 46.3 °F /  7.9 °C 41.1 °F /  5.1 °C 30.13in /  1020.2hPa Calm     82% 0.00in /  0mm
03:35 46.3 °F /  7.9 °C 41.4 °F /  5.2 °C 30.13in /  1020.2hPa Calm   1.0mph /  1.6km/h 83% 0.00in /  0mm
03:40 46.3 °F /  7.9 °C 41.7 °F /  5.4 °C 30.12in /  1019.9hPa Calm     84% 0.00in /  0mm
03:45 45.8 °F /  7.7 °C 40.9 °F /  4.9 °C 30.13in /  1020.2hPa Calm     83% 0.00in /  0mm
03:50 45.0 °F /  7.2 °C 40.5 °F /  4.7 °C 30.12in /  1019.9hPa Calm     84% 0.00in /  0mm
03:55 44.8 °F /  7.1 °C 40.9 °F /  4.9 °C 30.12in /  1019.9hPa Calm   1.0mph /  1.6km/h 86% 0.00in /  0mm
04:00 45.3 °F /  7.4 °C 40.8 °F /  4.9 °C 30.12in /  1019.9hPa Calm     84% 0.00in /  0mm
04:05 45.5 °F /  7.5 °C 40.3 °F /  4.6 °C 30.12in /  1019.9hPa Calm     82% 0.00in /  0mm
04:10 45.4 °F /  7.4 °C 40.2 °F /  4.6 °C 30.12in /  1019.9hPa NNW 1.0mph /  1.6km/h 1.0mph /  1.6km/h 82% 0.00in /  0mm
04:15 45.9 °F /  7.7 °C 40.4 °F /  4.7 °C 30.12in /  1019.9hPa Calm   1.0mph /  1.6km/h 81% 0.00in /  0mm
04:20 46.5 °F /  8.1 °C 40.3 °F /  4.6 °C 30.12in /  1019.9hPa NNE 1.0mph /  1.6km/h 2.0mph /  3.2km/h 79% 0.00in /  0mm
04:25 47.1 °F /  8.4 °C 40.6 °F /  4.8 °C 30.12in /  1019.9hPa NNE 2.0mph /  3.2km/h 2.0mph /  3.2km/h 78% 0.00in /  0mm
04:30 47.6 °F /  8.7 °C 40.4 °F /  4.7 °C 30.12in /  1019.9hPa NNE 1.0mph /  1.6km/h 2.0mph /  3.2km/h 76% 0.00in /  0mm
04:36 48.0 °F /  8.9 °C 40.5 °F /  4.7 °C 30.12in /  1019.9hPa NNE 1.0mph /  1.6km/h 2.0mph /  3.2km/h 75% 0.00in /  0mm
04:41 48.1 °F /  8.9 °C 40.2 °F /  4.6 °C 30.12in /  1019.9hPa NE 1.0mph /  1.6km/h 1.0mph /  1.6km/h 74% 0.00in /  0mm
04:46 48.1 °F /  8.9 °C 40.2 °F /  4.6 °C 30.11in /  1019.5hPa North 1.0mph /  1.6km/h 2.0mph /  3.2km/h 74% 0.00in /  0mm
04:51 47.9 °F /  8.8 °C 40.0 °F /  4.4 °C 30.11in /  1019.5hPa NE 1.0mph /  1.6km/h 2.0mph /  3.2km/h 74% 0.00in /  0mm
04:56 47.8 °F /  8.8 °C 40.3 °F /  4.6 °C 30.12in /  1019.9hPa Calm   1.0mph /  1.6km/h 75% 0.00in /  0mm
05:01 47.5 °F /  8.6 °C 40.0 °F /  4.4 °C 30.11in /  1019.5hPa NE 1.0mph /  1.6km/h 1.0mph /  1.6km/h 75% 0.00in /  0mm
05:02 47.5 °F /  8.6 °C 40.0 °F /  4.4 °C 30.11in /  1019.5hPa NE 1.0mph /  1.6km/h 1.0mph /  1.6km/h 75% 0.00in /  0mm
05:07 47.4 °F /  8.6 °C 39.9 °F /  4.4 °C 30.12in /  1019.9hPa Calm   2.0mph /  3.2km/h 75% 0.00in /  0mm
05:12 47.2 °F /  8.4 °C 40.0 °F /  4.4 °C 30.12in /  1019.9hPa Calm   1.0mph /  1.6km/h 76% 0.00in /  0mm
05:17 46.7 °F /  8.2 °C 39.5 °F /  4.2 °C 30.11in /  1019.5hPa Calm     76% 0.00in /  0mm
05:22 45.9 °F /  7.7 °C 39.4 °F /  4.1 °C 30.11in /  1019.5hPa Calm     78% 0.00in /  0mm
05:27 45.3 °F /  7.4 °C 39.5 °F /  4.2 °C 30.11in /  1019.5hPa Calm     80% 0.00in /  0mm
05:32 44.7 °F /  7.1 °C 39.2 °F /  4 °C 30.11in /  1019.5hPa Calm     81% 0.00in /  0mm
05:38 44.3 °F /  6.8 °C 39.5 °F /  4.2 °C 30.11in /  1019.5hPa NNE 1.0mph /  1.6km/h 1.0mph /  1.6km/h 83% 0.00in /  0mm
05:43 43.7 °F /  6.5 °C 39.2 °F /  4 °C 30.11in /  1019.5hPa Calm     84% 0.00in /  0mm
05:48 43.2 °F /  6.2 °C 39.0 °F /  3.9 °C 30.11in /  1019.5hPa Calm     85% 0.00in /  0mm
05:53 43.1 °F /  6.2 °C 39.5 °F /  4.2 °C 30.12in /  1019.9hPa Calm   1.0mph /  1.6km/h 87% 0.00in /  0mm
05:58 42.8 °F /  6 °C 39.2 °F /  4 °C 30.11in /  1019.5hPa Calm   1.0mph /  1.6km/h 87% 0.00in /  0mm
06:03 42.9 °F /  6.1 °C 39.6 °F /  4.2 °C 30.11in /  1019.5hPa Calm   1.0mph /  1.6km/h 88% 0.00in /  0mm
06:08 42.8 °F /  6 °C 39.2 °F /  4 °C 30.11in /  1019.5hPa Calm     87% 0.00in /  0mm
06:13 42.7 °F /  5.9 °C 39.1 °F /  3.9 °C 30.11in /  1019.5hPa Calm     87% 0.00in /  0mm
06:19 42.9 °F /  6.1 °C 39.0 °F /  3.9 °C 30.11in /  1019.5hPa Calm     86% 0.00in /  0mm
06:24 43.4 °F /  6.3 °C 39.2 °F /  4 °C 30.11in /  1019.5hPa NNE 1.0mph /  1.6km/h 1.0mph /  1.6km/h 85% 0.00in /  0mm
06:29 44.1 °F /  6.7 °C 39.3 °F /  4.1 °C 30.11in /  1019.5hPa NNE 1.0mph /  1.6km/h 2.0mph /  3.2km/h 83% 0.00in /  0mm
06:34 44.8 °F /  7.1 °C 39.0 °F /  3.9 °C 30.11in /  1019.5hPa NNE 1.0mph /  1.6km/h 2.0mph /  3.2km/h 80% 0.00in /  0mm
06:39 45.0 °F /  7.2 °C 38.9 °F /  3.8 °C 30.11in /  1019.5hPa Calm   1.0mph /  1.6km/h 79% 0.00in /  0mm
06:44 44.6 °F /  7 °C 38.5 °F /  3.6 °C 30.11in /  1019.5hPa NNE 1.0mph /  1.6km/h 1.0mph /  1.6km/h 79% 0.00in /  0mm
06:50 43.9 °F /  6.6 °C 38.5 °F /  3.6 °C 30.12in /  1019.9hPa Calm     81% 0.00in /  0mm
06:55 42.8 °F /  6 °C 38.0 °F /  3.3 °C 30.12in /  1019.9hPa NNE 1.0mph /  1.6km/h 1.0mph /  1.6km/h 83% 0.00in /  0mm
07:01 42.5 °F /  5.8 °C 38.3 °F /  3.5 °C 30.12in /  1019.9hPa Calm   1.0mph /  1.6km/h 85% 0.00in /  0mm
07:06 42.3 °F /  5.7 °C 38.1 °F /  3.4 °C 30.12in /  1019.9hPa Calm   1.0mph /  1.6km/h 85% 0.00in /  0mm
07:11 41.7 °F /  5.4 °C 38.4 °F /  3.6 °C 30.12in /  1019.9hPa North 1.0mph /  1.6km/h 1.0mph /  1.6km/h 88% 0.00in /  0mm
07:16 41.4 °F /  5.2 °C 38.4 °F /  3.6 °C 30.12in /  1019.9hPa North 1.0mph /  1.6km/h 1.0mph /  1.6km/h 89% 0.00in /  0mm
07:21 41.3 °F /  5.2 °C 38.6 °F /  3.7 °C 30.12in /  1019.9hPa North 1.0mph /  1.6km/h 1.0mph /  1.6km/h 90% 0.00in /  0mm
07:26 41.1 °F /  5.1 °C 38.4 °F /  3.6 °C 30.12in /  1019.9hPa Calm     90% 0.00in /  0mm
07:31 40.5 °F /  4.7 °C 37.8 °F /  3.2 °C 30.13in /  1020.2hPa Calm     90% 0.00in /  0mm
07:36 40.4 °F /  4.7 °C 38.0 °F /  3.3 °C 30.13in /  1020.2hPa Calm     91% 0.00in /  0mm
07:41 40.3 °F /  4.6 °C 38.2 °F /  3.4 °C 30.13in /  1020.2hPa Calm   1.0mph /  1.6km/h 92% 0.00in /  0mm
07:46 40.1 °F /  4.5 °C 38.0 °F /  3.3 °C 30.14in /  1020.5hPa Calm     92% 0.00in /  0mm
07:51 40.1 °F /  4.5 °C 38.2 °F /  3.4 °C 30.14in /  1020.5hPa Calm     93% 0.00in /  0mm
07:56 40.3 °F /  4.6 °C 38.7 °F /  3.7 °C 30.14in /  1020.5hPa Calm     94% 0.00in /  0mm
08:01 40.7 °F /  4.8 °C 38.8 °F /  3.8 °C 30.14in /  1020.5hPa Calm     93% 0.00in /  0mm
08:06 41.0 °F /  5 °C 39.1 °F /  3.9 °C 30.14in /  1020.5hPa Calm   1.0mph /  1.6km/h 93% 0.00in /  0mm
08:11 41.5 °F /  5.3 °C 39.6 °F /  4.2 °C 30.14in /  1020.5hPa Calm   1.0mph /  1.6km/h 93% 0.00in /  0mm
08:16 41.8 °F /  5.4 °C 39.7 °F /  4.3 °C 30.14in /  1020.5hPa Calm   1.0mph /  1.6km/h 92% 0.00in /  0mm
08:21 42.1 °F /  5.6 °C 39.7 °F /  4.3 °C 30.14in /  1020.5hPa Calm     91% 0.00in /  0mm
08:26 42.8 °F /  6 °C 40.1 °F /  4.5 °C 30.14in /  1020.5hPa Calm   1.0mph /  1.6km/h 90% 0.00in /  0mm
08:31 43.6 °F /  6.4 °C 40.3 °F /  4.6 °C 30.14in /  1020.5hPa Calm     88% 0.00in /  0mm
08:36 44.4 °F /  6.9 °C 40.8 °F /  4.9 °C 30.14in /  1020.5hPa Calm     87% 0.00in /  0mm
08:41 45.5 °F /  7.5 °C 41.9 °F /  5.5 °C 30.14in /  1020.5hPa Calm     87% 0.00in /  0mm
08:46 46.6 °F /  8.1 °C 42.3 °F /  5.7 °C 30.14in /  1020.5hPa NW 1.0mph /  1.6km/h 1.0mph /  1.6km/h 85% 0.00in /  0mm
08:52 47.5 °F /  8.6 °C 42.3 °F /  5.7 °C 30.14in /  1020.5hPa Calm   2.0mph /  3.2km/h 82% 0.00in /  0mm
08:57 48.6 °F /  9.2 °C 43.4 °F /  6.3 °C 30.15in /  1020.9hPa Calm     82% 0.00in /  0mm
09:02 49.7 °F /  9.8 °C 44.4 °F /  6.9 °C 30.15in /  1020.9hPa Calm     82% 0.00in /  0mm
09:07 50.7 °F /  10.4 °C 44.8 °F /  7.1 °C 30.15in /  1020.9hPa Calm     80% 0.00in /  0mm
09:12 51.5 °F /  10.8 °C 45.2 °F /  7.3 °C 30.15in /  1020.9hPa NW 1.0mph /  1.6km/h 1.0mph /  1.6km/h 79% 0.00in /  0mm
09:17 52.1 °F /  11.2 °C 45.5 °F /  7.5 °C 30.15in /  1020.9hPa Calm   1.0mph /  1.6km/h 78% 0.00in /  0mm
09:22 52.9 °F /  11.6 °C 46.9 °F /  8.3 °C 30.15in /  1020.9hPa Calm   1.0mph /  1.6km/h 80% 0.00in /  0mm
09:27 54.0 °F /  12.2 °C 46.6 °F /  8.1 °C 30.15in /  1020.9hPa Calm   1.0mph /  1.6km/h 76% 0.00in /  0mm
09:32 54.7 °F /  12.6 °C 45.9 °F /  7.7 °C 30.15in /  1020.9hPa NW 1.0mph /  1.6km/h 1.0mph /  1.6km/h 72% 0.00in /  0mm
09:37 55.1 °F /  12.8 °C 45.5 °F /  7.5 °C 30.15in /  1020.9hPa Calm   1.0mph /  1.6km/h 70% 0.00in /  0mm
09:42 55.8 °F /  13.2 °C 45.8 °F /  7.7 °C 30.15in /  1020.9hPa NW 1.0mph /  1.6km/h 2.0mph /  3.2km/h 69% 0.00in /  0mm
09:47 56.5 °F /  13.6 °C 44.9 °F /  7.2 °C 30.15in /  1020.9hPa NW 2.0mph /  3.2km/h 2.0mph /  3.2km/h 65% 0.00in /  0mm
09:52 57.3 °F /  14.1 °C 43.5 °F /  6.4 °C 30.15in /  1020.9hPa NNW 1.0mph /  1.6km/h 1.0mph /  1.6km/h 60% 0.00in /  0mm
09:57 58.1 °F /  14.5 °C 43.0 °F /  6.1 °C 30.15in /  1020.9hPa Calm   2.0mph /  3.2km/h 57% 0.00in /  0mm
10:02 58.9 °F /  14.9 °C 42.8 °F /  6 °C 30.15in /  1020.9hPa Calm   1.0mph /  1.6km/h 55% 0.00in /  0mm
10:07 60.1 °F /  15.6 °C 44.4 °F /  6.9 °C 30.15in /  1020.9hPa NW 1.0mph /  1.6km/h 1.0mph /  1.6km/h 56% 0.00in /  0mm
10:12 60.7 °F /  15.9 °C 43.0 °F /  6.1 °C 30.15in /  1020.9hPa Calm   1.0mph /  1.6km/h 52% 0.00in /  0mm
10:17 61.9 °F /  16.6 °C 45.1 °F /  7.3 °C 30.15in /  1020.9hPa Calm   1.0mph /  1.6km/h 54% 0.00in /  0mm
10:22 62.3 °F /  16.8 °C 44.5 °F /  6.9 °C 30.15in /  1020.9hPa NNW 2.0mph /  3.2km/h 2.0mph /  3.2km/h 52% 0.00in /  0mm
10:27 62.7 °F /  17.1 °C 41.1 °F /  5.1 °C 30.16in /  1021.2hPa Calm   1.0mph /  1.6km/h 45% 0.00in /  0mm
10:32 63.1 °F /  17.3 °C 38.4 °F /  3.6 °C 30.16in /  1021.2hPa West 1.0mph /  1.6km/h 2.0mph /  3.2km/h 40% 0.00in /  0mm
10:38 63.3 °F /  17.4 °C 36.6 °F /  2.6 °C 30.16in /  1021.2hPa WSW 2.0mph /  3.2km/h 3.0mph /  4.8km/h 37% 0.00in /  0mm
10:43 63.4 °F /  17.4 °C 39.3 °F /  4.1 °C 30.16in /  1021.2hPa SW 2.0mph /  3.2km/h 3.0mph /  4.8km/h 41% 0.00in /  0mm
10:48 64.1 °F /  17.8 °C 42.3 °F /  5.7 °C 30.16in /  1021.2hPa WSW 1.0mph /  1.6km/h 1.0mph /  1.6km/h 45% 0.00in /  0mm
10:53 64.1 °F /  17.8 °C 39.3 °F /  4.1 °C 30.16in /  1021.2hPa WSW 1.0mph /  1.6km/h 4.0mph /  6.4km/h 40% 0.00in /  0mm
10:58 64.1 °F /  17.8 °C 41.2 °F /  5.1 °C 30.16in /  1021.2hPa WSW 2.0mph /  3.2km/h 5.0mph /  8km/h 43% 0.00in /  0mm
11:03 64.1 °F /  17.8 °C 40.6 °F /  4.8 °C 30.16in /  1021.2hPa WNW 2.0mph /  3.2km/h 3.0mph /  4.8km/h 42% 0.00in /  0mm
11:09 64.5 °F /  18.1 °C 42.7 °F /  5.9 °C 30.16in /  1021.2hPa West 2.0mph /  3.2km/h 4.0mph /  6.4km/h 45% 0.00in /  0mm
11:14 64.5 °F /  18.1 °C 38.3 °F /  3.5 °C 30.16in /  1021.2hPa NW 4.0mph /  6.4km/h 6.0mph /  9.7km/h 38% 0.00in /  0mm
11:20 64.2 °F /  17.9 °C 35.3 °F /  1.8 °C 30.16in /  1021.2hPa SW 5.0mph /  8km/h 7.0mph /  11.3km/h 34% 0.00in /  0mm
11:25 64.1 °F /  17.8 °C 36.6 °F /  2.6 °C 30.16in /  1021.2hPa WNW 4.0mph /  6.4km/h 8.0mph /  12.9km/h 36% 0.00in /  0mm
11:30 64.0 °F /  17.8 °C 36.5 °F /  2.5 °C 30.16in /  1021.2hPa WNW 5.0mph /  8km/h 7.0mph /  11.3km/h 36% 0.00in /  0mm
11:35 64.5 °F /  18.1 °C 37.7 °F /  3.2 °C 30.16in /  1021.2hPa NW 9.0mph /  14.5km/h 11.0mph /  17.7km/h 37% 0.00in /  0mm
11:40 64.6 °F /  18.1 °C 37.1 °F /  2.8 °C 30.16in /  1021.2hPa WNW 6.0mph /  9.7km/h 10.0mph /  16.1km/h 36% 0.00in /  0mm
11:45 64.6 °F /  18.1 °C 40.4 °F /  4.7 °C 30.16in /  1021.2hPa WNW 6.0mph /  9.7km/h 7.0mph /  11.3km/h 41% 0.00in /  0mm
11:50 64.7 °F /  18.2 °C 37.2 °F /  2.9 °C 30.16in /  1021.2hPa WNW 6.0mph /  9.7km/h 10.0mph /  16.1km/h 36% 0.00in /  0mm
11:56 64.8 °F /  18.2 °C 39.9 °F /  4.4 °C 30.16in /  1021.2hPa WNW 6.0mph /  9.7km/h 6.0mph /  9.7km/h 40% 0.00in /  0mm
12:01 65.0 °F /  18.3 °C 37.4 °F /  3 °C 30.16in /  1021.2hPa NNW 5.0mph /  8km/h 8.0mph /  12.9km/h 36% 0.00in /  0mm
12:06 65.2 °F /  18.4 °C 39.6 °F /  4.2 °C 30.15in /  1020.9hPa NNW 8.0mph /  12.9km/h 8.0mph /  12.9km/h 39% 0.00in /  0mm
12:11 65.2 °F /  18.4 °C 40.3 °F /  4.6 °C 30.15in /  1020.9hPa NNW 4.0mph /  6.4km/h 9.0mph /  14.5km/h 40% 0.00in /  0mm
12:16 65.4 °F /  18.6 °C 41.1 °F /  5.1 °C 30.15in /  1020.9hPa NNE 7.0mph /  11.3km/h 8.0mph /  12.9km/h 41% 0.00in /  0mm
12:21 65.6 °F /  18.7 °C 40.7 °F /  4.8 °C 30.15in /  1020.9hPa NW 4.0mph /  6.4km/h 7.0mph /  11.3km/h 40% 0.00in /  0mm
12:30 65.8 °F /  18.8 °C 39.5 °F /  4.2 °C 30.15in /  1020.9hPa NNE 5.0mph /  8km/h 9.0mph /  14.5km/h 38% 0.00in /  0mm
12:35 66.0 °F /  18.9 °C 39.7 °F /  4.3 °C 30.15in /  1020.9hPa North 5.0mph /  8km/h 7.0mph /  11.3km/h 38% 0.00in /  0mm
12:40 66.6 °F /  19.2 °C 40.2 °F /  4.6 °C 30.15in /  1020.9hPa West 7.0mph /  11.3km/h 8.0mph /  12.9km/h 38% 0.00in /  0mm
12:45 66.6 °F /  19.2 °C 39.5 °F /  4.2 °C 30.15in /  1020.9hPa WNW 4.0mph /  6.4km/h 7.0mph /  11.3km/h 37% 0.00in /  0mm
12:51 66.6 °F /  19.2 °C 40.9 °F /  4.9 °C 30.14in /  1020.5hPa NW 7.0mph /  11.3km/h 11.0mph /  17.7km/h 39% 0.00in /  0mm
12:56 67.0 °F /  19.4 °C 39.9 °F /  4.4 °C 30.14in /  1020.5hPa NW 2.0mph /  3.2km/h 7.0mph /  11.3km/h 37% 0.00in /  0mm
13:01 67.3 °F /  19.6 °C 40.8 °F /  4.9 °C 30.14in /  1020.5hPa WNW 6.0mph /  9.7km/h 8.0mph /  12.9km/h 38% 0.00in /  0mm
13:06 67.3 °F /  19.6 °C 40.2 °F /  4.6 °C 30.14in /  1020.5hPa WNW 5.0mph /  8km/h 8.0mph /  12.9km/h 37% 0.00in /  0mm
13:11 67.9 °F /  19.9 °C 42.1 °F /  5.6 °C 30.14in /  1020.5hPa WNW 5.0mph /  8km/h 5.0mph /  8km/h 39% 0.00in /  0mm
13:16 68.1 °F /  20.1 °C 39.4 °F /  4.1 °C 30.14in /  1020.5hPa NNW 7.0mph /  11.3km/h 10.0mph /  16.1km/h 35% 0.00in /  0mm
13:21 68.0 °F /  20 °C 38.6 °F /  3.7 °C 30.13in /  1020.2hPa NNE 8.0mph /  12.9km/h 10.0mph /  16.1km/h 34% 0.00in /  0mm
13:26 67.9 °F /  19.9 °C 40.0 °F /  4.4 °C 30.13in /  1020.2hPa North 5.0mph /  8km/h 5.0mph /  8km/h 36% 0.00in /  0mm
13:32 68.3 °F /  20.2 °C 39.6 °F /  4.2 °C 30.13in /  1020.2hPa NW 6.0mph /  9.7km/h 13.0mph /  20.9km/h 35% 0.00in /  0mm
13:37 68.3 °F /  20.2 °C 39.6 °F /  4.2 °C 30.13in /  1020.2hPa WNW 3.0mph /  4.8km/h 5.0mph /  8km/h 35% 0.00in /  0mm
13:42 69.1 °F /  20.6 °C 41.0 °F /  5 °C 30.13in /  1020.2hPa West 5.0mph /  8km/h 9.0mph /  14.5km/h 36% 0.00in /  0mm
13:47 69.1 °F /  20.6 °C 42.5 °F /  5.8 °C 30.13in /  1020.2hPa NW 6.0mph /  9.7km/h 9.0mph /  14.5km/h 38% 0.00in /  0mm
13:52 69.6 °F /  20.9 °C 41.5 °F /  5.3 °C 30.13in /  1020.2hPa WNW 4.0mph /  6.4km/h 12.0mph /  19.3km/h 36% 0.00in /  0mm
13:57 69.2 °F /  20.7 °C 42.5 °F /  5.8 °C 30.13in /  1020.2hPa NW 5.0mph /  8km/h 12.0mph /  19.3km/h 38% 0.00in /  0mm
14:02 69.3 °F /  20.7 °C 39.0 °F /  3.9 °C 30.12in /  1019.9hPa NW 4.0mph /  6.4km/h 11.0mph /  17.7km/h 33% 0.00in /  0mm
14:07 68.9 °F /  20.5 °C 37.0 °F /  2.8 °C 30.12in /  1019.9hPa WNW 4.0mph /  6.4km/h 8.0mph /  12.9km/h 31% 0.00in /  0mm
14:12 69.2 °F /  20.7 °C 38.9 °F /  3.8 °C 30.12in /  1019.9hPa NNE 9.0mph /  14.5km/h 10.0mph /  16.1km/h 33% 0.00in /  0mm
14:17 69.4 °F /  20.8 °C 39.1 °F /  3.9 °C 30.11in /  1019.5hPa NNW 5.0mph /  8km/h 7.0mph /  11.3km/h 33% 0.00in /  0mm
14:22 69.3 °F /  20.7 °C 38.2 °F /  3.4 °C 30.11in /  1019.5hPa NW 4.0mph /  6.4km/h 6.0mph /  9.7km/h 32% 0.00in /  0mm
14:27 69.4 °F /  20.8 °C 39.8 °F /  4.3 °C 30.11in /  1019.5hPa WNW 1.0mph /  1.6km/h 9.0mph /  14.5km/h 34% 0.00in /  0mm
14:32 69.8 °F /  21 °C 39.4 °F /  4.1 °C 30.11in /  1019.5hPa NW 8.0mph /  12.9km/h 11.0mph /  17.7km/h 33% 0.00in /  0mm
14:37 69.7 °F /  20.9 °C 38.5 °F /  3.6 °C 30.11in /  1019.5hPa West 5.0mph /  8km/h 6.0mph /  9.7km/h 32% 0.00in /  0mm
14:43 70.1 °F /  21.2 °C 43.3 °F /  6.3 °C 30.11in /  1019.5hPa NW 8.0mph /  12.9km/h 15.0mph /  24.1km/h 38% 0.00in /  0mm
14:48 70.2 °F /  21.2 °C 39.8 °F /  4.3 °C 30.10in /  1019.2hPa NNW 3.0mph /  4.8km/h 9.0mph /  14.5km/h 33% 0.00in /  0mm
14:53 70.3 °F /  21.3 °C 39.9 °F /  4.4 °C 30.11in /  1019.5hPa NW 5.0mph /  8km/h 8.0mph /  12.9km/h 33% 0.00in /  0mm
14:58 70.2 °F /  21.2 °C 42.0 °F /  5.6 °C 30.10in /  1019.2hPa NNW 5.0mph /  8km/h 9.0mph /  14.5km/h 36% 0.00in /  0mm
15:03 70.2 °F /  21.2 °C 39.8 °F /  4.3 °C 30.10in /  1019.2hPa West 5.0mph /  8km/h 11.0mph /  17.7km/h 33% 0.00in /  0mm
15:04 70.3 °F /  21.3 °C 40.6 °F /  4.8 °C 30.10in /  1019.2hPa West 6.0mph /  9.7km/h 9.0mph /  14.5km/h 34% 0.00in /  0mm
15:09 70.7 °F /  21.5 °C 39.4 °F /  4.1 °C 30.10in /  1019.2hPa NW 5.0mph /  8km/h 11.0mph /  17.7km/h 32% 0.00in /  0mm
15:14 70.5 °F /  21.4 °C 40.8 °F /  4.9 °C 30.10in /  1019.2hPa NW 7.0mph /  11.3km/h 12.0mph /  19.3km/h 34% 0.00in /  0mm
15:19 70.6 °F /  21.4 °C 41.7 °F /  5.4 °C 30.10in /  1019.2hPa WNW 7.0mph /  11.3km/h 8.0mph /  12.9km/h 35% 0.00in /  0mm
15:24 70.5 °F /  21.4 °C 41.6 °F /  5.3 °C 30.09in /  1018.8hPa WNW 4.0mph /  6.4km/h 9.0mph /  14.5km/h 35% 0.00in /  0mm
15:29 70.8 °F /  21.6 °C 41.1 °F /  5.1 °C 30.09in /  1018.8hPa WNW 7.0mph /  11.3km/h 9.0mph /  14.5km/h 34% 0.00in /  0mm
15:35 70.9 °F /  21.6 °C 38.0 °F /  3.3 °C 30.09in /  1018.8hPa West 5.0mph /  8km/h 11.0mph /  17.7km/h 30% 0.00in /  0mm
15:38 70.6 °F /  21.4 °C 40.1 °F /  4.5 °C 30.09in /  1018.8hPa WNW 8.0mph /  12.9km/h 11.0mph /  17.7km/h 33% 0.00in /  0mm
15:43 70.9 °F /  21.6 °C 40.4 °F /  4.7 °C 30.09in /  1018.8hPa WNW 8.0mph /  12.9km/h 8.0mph /  12.9km/h 33% 0.00in /  0mm
15:48 70.8 °F /  21.6 °C 41.8 °F /  5.4 °C 30.08in /  1018.5hPa NW 5.0mph /  8km/h 8.0mph /  12.9km/h 35% 0.00in /  0mm
15:53 71.1 °F /  21.7 °C 41.3 °F /  5.2 °C 30.09in /  1018.8hPa WNW 4.0mph /  6.4km/h 7.0mph /  11.3km/h 34% 0.00in /  0mm
15:58 71.2 °F /  21.8 °C 42.9 °F /  6.1 °C 30.08in /  1018.5hPa WNW 6.0mph /  9.7km/h 10.0mph /  16.1km/h 36% 0.00in /  0mm
16:03 70.8 °F /  21.6 °C 38.7 °F /  3.7 °C 30.08in /  1018.5hPa WNW 6.0mph /  9.7km/h 11.0mph /  17.7km/h 31% 0.00in /  0mm
16:08 70.8 °F /  21.6 °C 41.1 °F /  5.1 °C 30.08in /  1018.5hPa North 2.0mph /  3.2km/h 9.0mph /  14.5km/h 34% 0.00in /  0mm
16:13 71.2 °F /  21.8 °C 42.2 °F /  5.7 °C 30.08in /  1018.5hPa WNW 9.0mph /  14.5km/h 10.0mph /  16.1km/h 35% 0.00in /  0mm
16:18 71.5 °F /  21.9 °C 41.7 °F /  5.4 °C 30.08in /  1018.5hPa WNW 10.0mph /  16.1km/h 14.0mph /  22.5km/h 34% 0.00in /  0mm
16:24 71.1 °F /  21.7 °C 42.1 °F /  5.6 °C 30.07in /  1018.2hPa West 5.0mph /  8km/h 12.0mph /  19.3km/h 35% 0.00in /  0mm
16:29 70.9 °F /  21.6 °C 41.2 °F /  5.1 °C 30.07in /  1018.2hPa NW 4.0mph /  6.4km/h 11.0mph /  17.7km/h 34% 0.00in /  0mm
16:34 71.4 °F /  21.9 °C 43.1 °F /  6.2 °C 30.07in /  1018.2hPa WNW 8.0mph /  12.9km/h 8.0mph /  12.9km/h 36% 0.00in /  0mm
16:39 71.0 °F /  21.7 °C 40.5 °F /  4.7 °C 30.07in /  1018.2hPa West 5.0mph /  8km/h 13.0mph /  20.9km/h 33% 0.00in /  0mm
16:44 71.3 °F /  21.8 °C 42.3 °F /  5.7 °C 30.07in /  1018.2hPa NW 7.0mph /  11.3km/h 8.0mph /  12.9km/h 35% 0.00in /  0mm
16:50 71.2 °F /  21.8 °C 40.7 °F /  4.8 °C 30.06in /  1017.8hPa WNW 3.0mph /  4.8km/h 7.0mph /  11.3km/h 33% 0.00in /  0mm
16:55 71.7 °F /  22.1 °C 44.8 °F /  7.1 °C 30.06in /  1017.8hPa WNW 4.0mph /  6.4km/h 6.0mph /  9.7km/h 38% 0.00in /  0mm
17:00 72.0 °F /  22.2 °C 42.9 °F /  6.1 °C 30.06in /  1017.8hPa NW 9.0mph /  14.5km/h 9.0mph /  14.5km/h 35% 0.00in /  0mm
17:05 71.6 °F /  22 °C 39.4 °F /  4.1 °C 30.06in /  1017.8hPa West 8.0mph /  12.9km/h 11.0mph /  17.7km/h 31% 0.00in /  0mm
17:10 71.6 °F /  22 °C 41.0 °F /  5 °C 30.06in /  1017.8hPa West 5.0mph /  8km/h 12.0mph /  19.3km/h 33% 0.00in /  0mm
17:15 71.9 °F /  22.2 °C 42.0 °F /  5.6 °C 30.06in /  1017.8hPa NW 5.0mph /  8km/h 8.0mph /  12.9km/h 34% 0.00in /  0mm
17:20 71.6 °F /  22 °C 38.6 °F /  3.7 °C 30.06in /  1017.8hPa WNW 4.0mph /  6.4km/h 10.0mph /  16.1km/h 30% 0.00in /  0mm
17:25 71.5 °F /  21.9 °C 39.3 °F /  4.1 °C 30.06in /  1017.8hPa WNW 8.0mph /  12.9km/h 13.0mph /  20.9km/h 31% 0.00in /  0mm
17:30 71.5 °F /  21.9 °C 39.3 °F /  4.1 °C 30.06in /  1017.8hPa WSW 7.0mph /  11.3km/h 9.0mph /  14.5km/h 31% 0.00in /  0mm
17:35 71.6 °F /  22 °C 40.2 °F /  4.6 °C 30.06in /  1017.8hPa West 5.0mph /  8km/h 7.0mph /  11.3km/h 32% 0.00in /  0mm
17:40 71.7 °F /  22.1 °C 39.5 °F /  4.2 °C 30.05in /  1017.5hPa WSW 5.0mph /  8km/h 7.0mph /  11.3km/h 31% 0.00in /  0mm
17:45 72.1 °F /  22.3 °C 39.8 °F /  4.3 °C 30.05in /  1017.5hPa WNW 9.0mph /  14.5km/h 13.0mph /  20.9km/h 31% 0.00in /  0mm
17:50 71.9 °F /  22.2 °C 39.7 °F /  4.3 °C 30.05in /  1017.5hPa WNW 5.0mph /  8km/h 9.0mph /  14.5km/h 31% 0.00in /  0mm
17:56 72.0 °F /  22.2 °C 41.3 °F /  5.2 °C 30.05in /  1017.5hPa WNW 5.0mph /  8km/h 10.0mph /  16.1km/h 33% 0.00in /  0mm
18:01 71.8 °F /  22.1 °C 40.4 °F /  4.7 °C 30.04in /  1017.2hPa West 2.0mph /  3.2km/h 10.0mph /  16.1km/h 32% 0.00in /  0mm
18:06 72.2 °F /  22.3 °C 42.3 °F /  5.7 °C 30.04in /  1017.2hPa WSW 7.0mph /  11.3km/h 7.0mph /  11.3km/h 34% 0.00in /  0mm
18:11 72.2 °F /  22.3 °C 41.5 °F /  5.3 °C 30.04in /  1017.2hPa WNW 2.0mph /  3.2km/h 5.0mph /  8km/h 33% 0.00in /  0mm
18:16 72.1 °F /  22.3 °C 41.4 °F /  5.2 °C 30.04in /  1017.2hPa WNW 3.0mph /  4.8km/h 8.0mph /  12.9km/h 33% 0.00in /  0mm
18:21 72.0 °F /  22.2 °C 39.7 °F /  4.3 °C 30.03in /  1016.8hPa West 6.0mph /  9.7km/h 10.0mph /  16.1km/h 31% 0.00in /  0mm
18:26 71.8 °F /  22.1 °C 40.4 °F /  4.7 °C 30.03in /  1016.8hPa West 3.0mph /  4.8km/h 8.0mph /  12.9km/h 32% 0.00in /  0mm
18:31 71.8 °F /  22.1 °C 41.2 °F /  5.1 °C 30.03in /  1016.8hPa WNW 4.0mph /  6.4km/h 8.0mph /  12.9km/h 33% 0.00in /  0mm
18:36 71.7 °F /  22.1 °C 41.1 °F /  5.1 °C 30.03in /  1016.8hPa NW 5.0mph /  8km/h 5.0mph /  8km/h 33% 0.00in /  0mm
18:41 71.4 °F /  21.9 °C 40.0 °F /  4.4 °C 30.03in /  1016.8hPa NW 5.0mph /  8km/h 7.0mph /  11.3km/h 32% 0.00in /  0mm
18:46 71.3 °F /  21.8 °C 40.7 °F /  4.8 °C 30.03in /  1016.8hPa WNW 4.0mph /  6.4km/h 8.0mph /  12.9km/h 33% 0.00in /  0mm
18:52 71.1 °F /  21.7 °C 40.6 °F /  4.8 °C 30.03in /  1016.8hPa West 2.0mph /  3.2km/h 8.0mph /  12.9km/h 33% 0.00in /  0mm
18:57 71.1 °F /  21.7 °C 39.8 °F /  4.3 °C 30.03in /  1016.8hPa NW 2.0mph /  3.2km/h 7.0mph /  11.3km/h 32% 0.00in /  0mm
19:02 71.1 °F /  21.7 °C 41.3 °F /  5.2 °C 30.03in /  1016.8hPa WNW 7.0mph /  11.3km/h 7.0mph /  11.3km/h 34% 0.00in /  0mm
19:07 70.8 °F /  21.6 °C 41.1 °F /  5.1 °C 30.03in /  1016.8hPa WNW 8.0mph /  12.9km/h 10.0mph /  16.1km/h 34% 0.00in /  0mm
19:12 70.5 °F /  21.4 °C 40.0 °F /  4.4 °C 30.03in /  1016.8hPa West 2.0mph /  3.2km/h 8.0mph /  12.9km/h 33% 0.00in /  0mm
19:17 70.3 °F /  21.3 °C 40.6 °F /  4.8 °C 30.03in /  1016.8hPa WNW 4.0mph /  6.4km/h 5.0mph /  8km/h 34% 0.00in /  0mm
19:22 70.1 °F /  21.2 °C 40.5 °F /  4.7 °C 30.03in /  1016.8hPa WNW 3.0mph /  4.8km/h 5.0mph /  8km/h 34% 0.00in /  0mm
19:27 69.9 °F /  21.1 °C 40.3 °F /  4.6 °C 30.03in /  1016.8hPa WNW 4.0mph /  6.4km/h 5.0mph /  8km/h 34% 0.00in /  0mm
19:32 69.8 °F /  21 °C 40.9 °F /  4.9 °C 30.03in /  1016.8hPa WNW 2.0mph /  3.2km/h 4.0mph /  6.4km/h 35% 0.00in /  0mm
19:37 69.6 °F /  20.9 °C 40.8 °F /  4.9 °C 30.03in /  1016.8hPa WNW 3.0mph /  4.8km/h 5.0mph /  8km/h 35% 0.00in /  0mm
19:42 69.3 °F /  20.7 °C 40.5 °F /  4.7 °C 30.03in /  1016.8hPa WNW 3.0mph /  4.8km/h 5.0mph /  8km/h 35% 0.00in /  0mm
19:47 69.0 °F /  20.6 °C 41.0 °F /  5 °C 30.03in /  1016.8hPa NW 2.0mph /  3.2km/h 4.0mph /  6.4km/h 36% 0.00in /  0mm
19:52 68.6 °F /  20.3 °C 41.3 °F /  5.2 °C 30.03in /  1016.8hPa WNW 2.0mph /  3.2km/h 3.0mph /  4.8km/h 37% 0.00in /  0mm
19:57 68.2 °F /  20.1 °C 41.7 °F /  5.4 °C 30.03in /  1016.8hPa West 1.0mph /  1.6km/h 2.0mph /  3.2km/h 38% 0.00in /  0mm
20:02 67.8 °F /  19.9 °C 41.3 °F /  5.2 °C 30.03in /  1016.8hPa WNW 1.0mph /  1.6km/h 3.0mph /  4.8km/h 38% 0.00in /  0mm
20:07 67.4 °F /  19.7 °C 41.6 °F /  5.3 °C 30.03in /  1016.8hPa Calm   1.0mph /  1.6km/h 39% 0.00in /  0mm
20:12 66.8 °F /  19.3 °C 41.7 °F /  5.4 °C 30.03in /  1016.8hPa Calm     40% 0.00in /  0mm
20:13 66.7 °F /  19.3 °C 41.6 °F /  5.3 °C 30.03in /  1016.8hPa Calm     40% 0.00in /  0mm
20:18 66.0 °F /  18.9 °C 41.7 °F /  5.4 °C 30.03in /  1016.8hPa Calm     41% 0.00in /  0mm
20:23 65.2 °F /  18.4 °C 41.5 °F /  5.3 °C 30.03in /  1016.8hPa Calm     42% 0.00in /  0mm
20:28 64.1 °F /  17.8 °C 41.8 °F /  5.4 °C 30.03in /  1016.8hPa Calm     44% 0.00in /  0mm
20:33 63.1 °F /  17.3 °C 42.0 °F /  5.6 °C 30.03in /  1016.8hPa Calm     46% 0.00in /  0mm
20:38 62.4 °F /  16.9 °C 41.9 °F /  5.5 °C 30.03in /  1016.8hPa Calm     47% 0.00in /  0mm
20:44 61.4 °F /  16.3 °C 42.1 °F /  5.6 °C 30.03in /  1016.8hPa Calm     49% 0.00in /  0mm
20:49 60.5 °F /  15.8 °C 42.3 °F /  5.7 °C 30.03in /  1016.8hPa Calm     51% 0.00in /  0mm
20:54 60.1 °F /  15.6 °C 42.4 °F /  5.8 °C 30.03in /  1016.8hPa Calm     52% 0.00in /  0mm
20:59 59.4 °F /  15.2 °C 42.8 °F /  6 °C 30.03in /  1016.8hPa Calm     54% 0.00in /  0mm
21:04 58.7 °F /  14.8 °C 42.6 °F /  5.9 °C 30.03in /  1016.8hPa Calm     55% 0.00in /  0mm
21:09 58.3 °F /  14.6 °C 42.2 °F /  5.7 °C 30.03in /  1016.8hPa Calm     55% 0.00in /  0mm
21:14 57.8 °F /  14.3 °C 42.7 °F /  5.9 °C 30.03in /  1016.8hPa Calm     57% 0.00in /  0mm
21:19 57.4 °F /  14.1 °C 42.8 °F /  6 °C 30.04in /  1017.2hPa Calm     58% 0.00in /  0mm
21:24 57.0 °F /  13.9 °C 42.4 °F /  5.8 °C 30.04in /  1017.2hPa Calm     58% 0.00in /  0mm
21:29 56.7 °F /  13.7 °C 43.4 °F /  6.3 °C 30.04in /  1017.2hPa Calm     61% 0.00in /  0mm
21:34 56.1 °F /  13.4 °C 42.4 °F /  5.8 °C 30.04in /  1017.2hPa Calm     60% 0.00in /  0mm
21:39 55.9 °F /  13.3 °C 42.2 °F /  5.7 °C 30.05in /  1017.5hPa Calm     60% 0.00in /  0mm
21:44 56.3 °F /  13.5 °C 42.2 °F /  5.7 °C 30.05in /  1017.5hPa Calm     59% 0.00in /  0mm
21:49 56.4 °F /  13.6 °C 42.3 °F /  5.7 °C 30.05in /  1017.5hPa Calm     59% 0.00in /  0mm
21:54 55.9 °F /  13.3 °C 41.8 °F /  5.4 °C 30.05in /  1017.5hPa Calm     59% 0.00in /  0mm
21:59 55.4 °F /  13 °C 42.2 °F /  5.7 °C 30.05in /  1017.5hPa Calm     61% 0.00in /  0mm
22:05 55.5 °F /  13.1 °C 42.3 °F /  5.7 °C 30.05in /  1017.5hPa Calm     61% 0.00in /  0mm
22:10 55.5 °F /  13.1 °C 42.3 °F /  5.7 °C 30.05in /  1017.5hPa Calm     61% 0.00in /  0mm
22:15 55.4 °F /  13 °C 42.6 °F /  5.9 °C 30.05in /  1017.5hPa Calm     62% 0.00in /  0mm
22:20 55.2 °F /  12.9 °C 42.4 °F /  5.8 °C 30.05in /  1017.5hPa Calm     62% 0.00in /  0mm
22:25 54.8 °F /  12.7 °C 42.0 °F /  5.6 °C 30.05in /  1017.5hPa Calm     62% 0.00in /  0mm
22:30 54.4 °F /  12.4 °C 42.5 °F /  5.8 °C 30.05in /  1017.5hPa Calm     64% 0.00in /  0mm
22:35 54.2 °F /  12.3 °C 41.9 °F /  5.5 °C 30.05in /  1017.5hPa Calm     63% 0.00in /  0mm
22:41 53.8 °F /  12.1 °C 42.3 °F /  5.7 °C 30.05in /  1017.5hPa Calm     65% 0.00in /  0mm
22:46 54.4 °F /  12.4 °C 42.9 °F /  6.1 °C 30.05in /  1017.5hPa Calm     65% 0.00in /  0mm
22:51 54.8 °F /  12.7 °C 42.9 °F /  6.1 °C 30.05in /  1017.5hPa Calm     64% 0.00in /  0mm
22:56 54.6 °F /  12.6 °C 43.1 °F /  6.2 °C 30.06in /  1017.8hPa Calm     65% 0.00in /  0mm
23:01 54.3 °F /  12.4 °C 43.2 °F /  6.2 °C 30.06in /  1017.8hPa Calm     66% 0.00in /  0mm
23:06 54.0 °F /  12.2 °C 42.9 °F /  6.1 °C 30.06in /  1017.8hPa Calm     66% 0.00in /  0mm
23:11 53.6 °F /  12 °C 42.5 °F /  5.8 °C 30.06in /  1017.8hPa Calm     66% 0.00in /  0mm
23:16 53.1 °F /  11.7 °C 43.2 °F /  6.2 °C 30.06in /  1017.8hPa Calm     69% 0.00in /  0mm
23:21 52.9 °F /  11.6 °C 44.5 °F /  6.9 °C 30.06in /  1017.8hPa Calm     73% 0.00in /  0mm
23:26 52.5 °F /  11.4 °C 44.8 °F /  7.1 °C 30.06in /  1017.8hPa Calm     75% 0.00in /  0mm
23:32 52.0 °F /  11.1 °C 45.0 °F /  7.2 °C 30.06in /  1017.8hPa Calm     77% 0.00in /  0mm
23:37 51.4 °F /  10.8 °C 45.1 °F /  7.3 °C 30.06in /  1017.8hPa Calm     79% 0.00in /  0mm
23:42 50.8 °F /  10.4 °C 44.9 °F /  7.2 °C 30.06in /  1017.8hPa Calm     80% 0.00in /  0mm
23:47 50.5 °F /  10.3 °C 44.6 °F /  7 °C 30.06in /  1017.8hPa Calm     80% 0.00in /  0mm
23:52 50.7 °F /  10.4 °C 44.1 °F /  6.7 °C 30.06in /  1017.8hPa Calm     78% 0.00in /  0mm
23:57 51.0 °F /  10.6 °C 44.4 °F /  6.9 °C 30.06in /  1017.8hPa Calm     78% 0.00in /  0mm
Compliments of Weather Underground